sensor_id;sensor_type;location;lat;lon;timestamp;P1;durP1;ratioP1;P2;durP2;ratioP2
40453;SDS011;26160;51.858;4.398;2022-07-06T00:01:19;5.43;;;0.50;;
40453;SDS011;26160;51.858;4.398;2022-07-06T00:03:46;1.08;;;0.40;;
40453;SDS011;26160;51.858;4.398;2022-07-06T00:06:12;1.33;;;0.70;;
40453;SDS011;26160;51.858;4.398;2022-07-06T00:08:38;1.10;;;0.45;;
40453;SDS011;26160;51.858;4.398;2022-07-06T00:11:05;2.15;;;0.77;;
40453;SDS011;26160;51.858;4.398;2022-07-06T00:13:31;1.38;;;0.50;;
40453;SDS011;26160;51.858;4.398;2022-07-06T00:15:57;3.17;;;0.45;;
40453;SDS011;26160;51.858;4.398;2022-07-06T00:18:23;1.45;;;0.40;;
40453;SDS011;26160;51.858;4.398;2022-07-06T00:20:49;1.67;;;0.40;;
40453;SDS011;26160;51.858;4.398;2022-07-06T00:23:15;2.70;;;0.63;;
40453;SDS011;26160;51.858;4.398;2022-07-06T00:25:42;3.40;;;0.60;;
40453;SDS011;26160;51.858;4.398;2022-07-06T00:28:08;1.60;;;0.47;;
40453;SDS011;26160;51.858;4.398;2022-07-06T00:30:34;3.05;;;0.60;;
40453;SDS011;26160;51.858;4.398;2022-07-06T00:33:00;1.92;;;0.35;;
40453;SDS011;26160;51.858;4.398;2022-07-06T00:35:26;2.08;;;0.60;;
40453;SDS011;26160;51.858;4.398;2022-07-06T00:37:52;3.17;;;0.50;;
40453;SDS011;26160;51.858;4.398;2022-07-06T00:40:19;1.55;;;0.25;;
40453;SDS011;26160;51.858;4.398;2022-07-06T00:42:46;1.35;;;0.52;;
40453;SDS011;26160;51.858;4.398;2022-07-06T00:45:14;2.25;;;0.30;;
40453;SDS011;26160;51.858;4.398;2022-07-06T00:47:42;1.13;;;0.40;;
40453;SDS011;26160;51.858;4.398;2022-07-06T00:50:09;0.95;;;0.32;;
40453;SDS011;26160;51.858;4.398;2022-07-06T00:52:40;1.58;;;0.60;;
40453;SDS011;26160;51.858;4.398;2022-07-06T00:55:27;3.40;;;0.60;;
40453;SDS011;26160;51.858;4.398;2022-07-06T00:58:03;1.20;;;0.60;;
40453;SDS011;26160;51.858;4.398;2022-07-06T01:00:29;0.88;;;0.30;;
40453;SDS011;26160;51.858;4.398;2022-07-06T01:02:56;2.38;;;0.57;;
40453;SDS011;26160;51.858;4.398;2022-07-06T01:05:23;5.15;;;0.70;;
40453;SDS011;26160;51.858;4.398;2022-07-06T01:07:49;1.42;;;0.60;;
40453;SDS011;26160;51.858;4.398;2022-07-06T01:10:17;3.25;;;0.73;;
40453;SDS011;26160;51.858;4.398;2022-07-06T01:12:45;2.22;;;0.70;;
40453;SDS011;26160;51.858;4.398;2022-07-06T01:15:13;2.38;;;0.60;;
40453;SDS011;26160;51.858;4.398;2022-07-06T01:17:41;1.20;;;0.50;;
40453;SDS011;26160;51.858;4.398;2022-07-06T01:20:11;2.17;;;0.77;;
40453;SDS011;26160;51.858;4.398;2022-07-06T01:22:42;2.03;;;0.68;;
40453;SDS011;26160;51.858;4.398;2022-07-06T01:25:10;3.95;;;0.77;;
40453;SDS011;26160;51.858;4.398;2022-07-06T01:27:37;1.02;;;0.30;;
40453;SDS011;26160;51.858;4.398;2022-07-06T01:30:05;1.02;;;0.40;;
40453;SDS011;26160;51.858;4.398;2022-07-06T01:32:32;1.73;;;0.45;;
40453;SDS011;26160;51.858;4.398;2022-07-06T01:35:00;1.05;;;0.60;;
40453;SDS011;26160;51.858;4.398;2022-07-06T01:37:26;3.70;;;0.75;;
40453;SDS011;26160;51.858;4.398;2022-07-06T01:39:52;3.35;;;0.60;;
40453;SDS011;26160;51.858;4.398;2022-07-06T01:42:19;3.20;;;0.50;;
40453;SDS011;26160;51.858;4.398;2022-07-06T01:44:45;3.45;;;0.63;;
40453;SDS011;26160;51.858;4.398;2022-07-06T01:47:11;1.35;;;0.40;;
40453;SDS011;26160;51.858;4.398;2022-07-06T01:49:37;2.53;;;0.52;;
40453;SDS011;26160;51.858;4.398;2022-07-06T01:52:03;2.60;;;0.75;;
40453;SDS011;26160;51.858;4.398;2022-07-06T01:54:29;2.92;;;0.60;;
40453;SDS011;26160;51.858;4.398;2022-07-06T01:56:55;2.47;;;0.60;;
40453;SDS011;26160;51.858;4.398;2022-07-06T01:59:21;2.40;;;1.00;;
40453;SDS011;26160;51.858;4.398;2022-07-06T02:01:47;1.35;;;0.50;;
40453;SDS011;26160;51.858;4.398;2022-07-06T02:04:13;1.63;;;0.70;;
40453;SDS011;26160;51.858;4.398;2022-07-06T02:06:39;1.10;;;0.50;;
40453;SDS011;26160;51.858;4.398;2022-07-06T02:09:06;1.00;;;0.68;;
40453;SDS011;26160;51.858;4.398;2022-07-06T02:11:32;3.22;;;0.73;;
40453;SDS011;26160;51.858;4.398;2022-07-06T02:13:58;0.63;;;0.60;;
40453;SDS011;26160;51.858;4.398;2022-07-06T02:16:24;2.40;;;0.80;;
40453;SDS011;26160;51.858;4.398;2022-07-06T02:18:50;1.63;;;0.88;;
40453;SDS011;26160;51.858;4.398;2022-07-06T02:21:16;3.45;;;1.17;;
40453;SDS011;26160;51.858;4.398;2022-07-06T02:23:42;1.70;;;0.90;;
40453;SDS011;26160;51.858;4.398;2022-07-06T02:26:08;2.70;;;0.95;;
40453;SDS011;26160;51.858;4.398;2022-07-06T02:28:34;1.67;;;0.80;;
40453;SDS011;26160;51.858;4.398;2022-07-06T02:31:01;4.40;;;1.25;;
40453;SDS011;26160;51.858;4.398;2022-07-06T02:33:27;1.35;;;1.00;;
40453;SDS011;26160;51.858;4.398;2022-07-06T02:35:53;2.08;;;0.70;;
40453;SDS011;26160;51.858;4.398;2022-07-06T02:38:19;2.15;;;0.95;;
40453;SDS011;26160;51.858;4.398;2022-07-06T02:40:45;1.20;;;0.80;;
40453;SDS011;26160;51.858;4.398;2022-07-06T02:43:11;2.30;;;1.20;;
40453;SDS011;26160;51.858;4.398;2022-07-06T02:45:37;1.50;;;0.60;;
40453;SDS011;26160;51.858;4.398;2022-07-06T02:48:04;2.47;;;0.88;;
40453;SDS011;26160;51.858;4.398;2022-07-06T02:50:30;2.83;;;0.93;;
40453;SDS011;26160;51.858;4.398;2022-07-06T02:52:56;1.05;;;0.88;;
40453;SDS011;26160;51.858;4.398;2022-07-06T02:55:24;1.38;;;0.82;;
40453;SDS011;26160;51.858;4.398;2022-07-06T02:57:50;1.75;;;0.70;;
40453;SDS011;26160;51.858;4.398;2022-07-06T03:00:16;1.23;;;0.80;;
40453;SDS011;26160;51.858;4.398;2022-07-06T03:02:42;1.48;;;0.80;;
40453;SDS011;26160;51.858;4.398;2022-07-06T03:05:08;1.23;;;0.80;;
40453;SDS011;26160;51.858;4.398;2022-07-06T03:07:34;1.63;;;0.93;;
40453;SDS011;26160;51.858;4.398;2022-07-06T03:10:01;1.27;;;0.90;;
40453;SDS011;26160;51.858;4.398;2022-07-06T03:12:27;1.95;;;1.00;;
40453;SDS011;26160;51.858;4.398;2022-07-06T03:14:53;1.88;;;0.90;;
40453;SDS011;26160;51.858;4.398;2022-07-06T03:17:19;2.45;;;0.93;;
40453;SDS011;26160;51.858;4.398;2022-07-06T03:19:46;2.67;;;1.23;;
40453;SDS011;26160;51.858;4.398;2022-07-06T03:22:12;3.05;;;1.13;;
40453;SDS011;26160;51.858;4.398;2022-07-06T03:24:39;2.17;;;1.13;;
40453;SDS011;26160;51.858;4.398;2022-07-06T03:27:05;2.65;;;1.40;;
40453;SDS011;26160;51.858;4.398;2022-07-06T03:29:31;2.45;;;1.25;;
40453;SDS011;26160;51.858;4.398;2022-07-06T03:31:57;1.85;;;1.10;;
40453;SDS011;26160;51.858;4.398;2022-07-06T03:34:23;2.33;;;0.90;;
40453;SDS011;26160;51.858;4.398;2022-07-06T03:36:50;1.75;;;0.93;;
40453;SDS011;26160;51.858;4.398;2022-07-06T03:39:16;2.45;;;0.95;;
40453;SDS011;26160;51.858;4.398;2022-07-06T03:41:42;2.03;;;0.80;;
40453;SDS011;26160;51.858;4.398;2022-07-06T03:44:08;1.67;;;0.98;;
40453;SDS011;26160;51.858;4.398;2022-07-06T03:46:34;1.23;;;0.85;;
40453;SDS011;26160;51.858;4.398;2022-07-06T03:49:01;2.15;;;1.00;;
40453;SDS011;26160;51.858;4.398;2022-07-06T03:51:27;1.70;;;1.27;;
40453;SDS011;26160;51.858;4.398;2022-07-06T03:53:53;2.42;;;0.80;;
40453;SDS011;26160;51.858;4.398;2022-07-06T03:56:19;2.30;;;1.02;;
40453;SDS011;26160;51.858;4.398;2022-07-06T03:58:55;1.33;;;1.00;;
40453;SDS011;26160;51.858;4.398;2022-07-06T04:01:21;2.35;;;0.90;;
40453;SDS011;26160;51.858;4.398;2022-07-06T04:03:48;2.38;;;1.30;;
40453;SDS011;26160;51.858;4.398;2022-07-06T04:06:14;1.70;;;1.10;;
40453;SDS011;26160;51.858;4.398;2022-07-06T04:08:40;1.73;;;0.75;;
40453;SDS011;26160;51.858;4.398;2022-07-06T04:11:06;2.70;;;0.90;;
40453;SDS011;26160;51.858;4.398;2022-07-06T04:13:33;2.30;;;0.90;;
40453;SDS011;26160;51.858;4.398;2022-07-06T04:15:59;1.88;;;0.75;;
40453;SDS011;26160;51.858;4.398;2022-07-06T04:18:25;4.22;;;0.90;;
40453;SDS011;26160;51.858;4.398;2022-07-06T04:20:51;2.28;;;0.88;;
40453;SDS011;26160;51.858;4.398;2022-07-06T04:23:18;2.40;;;0.90;;
40453;SDS011;26160;51.858;4.398;2022-07-06T04:25:44;1.83;;;1.08;;
40453;SDS011;26160;51.858;4.398;2022-07-06T04:28:10;1.83;;;0.70;;
40453;SDS011;26160;51.858;4.398;2022-07-06T04:30:36;2.10;;;1.02;;
40453;SDS011;26160;51.858;4.398;2022-07-06T04:33:02;3.05;;;1.00;;
40453;SDS011;26160;51.858;4.398;2022-07-06T04:35:28;1.65;;;1.00;;
40453;SDS011;26160;51.858;4.398;2022-07-06T04:37:54;2.35;;;0.85;;
40453;SDS011;26160;51.858;4.398;2022-07-06T04:40:20;1.10;;;0.52;;
40453;SDS011;26160;51.858;4.398;2022-07-06T04:42:46;1.00;;;0.60;;
40453;SDS011;26160;51.858;4.398;2022-07-06T04:45:13;1.73;;;0.65;;
40453;SDS011;26160;51.858;4.398;2022-07-06T04:47:40;2.20;;;0.88;;
40453;SDS011;26160;51.858;4.398;2022-07-06T04:50:06;0.68;;;0.55;;
40453;SDS011;26160;51.858;4.398;2022-07-06T04:52:33;2.65;;;0.68;;
40453;SDS011;26160;51.858;4.398;2022-07-06T04:54:59;1.35;;;0.70;;
40453;SDS011;26160;51.858;4.398;2022-07-06T04:57:25;1.17;;;0.60;;
40453;SDS011;26160;51.858;4.398;2022-07-06T04:59:51;2.95;;;0.85;;
40453;SDS011;26160;51.858;4.398;2022-07-06T05:02:18;1.92;;;0.73;;
40453;SDS011;26160;51.858;4.398;2022-07-06T05:04:44;3.17;;;0.63;;
40453;SDS011;26160;51.858;4.398;2022-07-06T05:07:10;1.40;;;0.60;;
40453;SDS011;26160;51.858;4.398;2022-07-06T05:09:36;1.67;;;0.40;;
40453;SDS011;26160;51.858;4.398;2022-07-06T05:12:02;1.50;;;0.63;;
40453;SDS011;26160;51.858;4.398;2022-07-06T05:14:29;1.42;;;0.40;;
40453;SDS011;26160;51.858;4.398;2022-07-06T05:16:55;3.15;;;0.50;;
40453;SDS011;26160;51.858;4.398;2022-07-06T05:19:21;1.10;;;0.50;;
40453;SDS011;26160;51.858;4.398;2022-07-06T05:21:47;1.13;;;0.47;;
40453;SDS011;26160;51.858;4.398;2022-07-06T05:24:14;2.53;;;0.35;;
40453;SDS011;26160;51.858;4.398;2022-07-06T05:26:41;1.05;;;0.60;;
40453;SDS011;26160;51.858;4.398;2022-07-06T05:29:07;0.60;;;0.40;;
40453;SDS011;26160;51.858;4.398;2022-07-06T05:31:33;2.08;;;0.77;;
40453;SDS011;26160;51.858;4.398;2022-07-06T05:34:00;3.35;;;0.45;;
40453;SDS011;26160;51.858;4.398;2022-07-06T05:36:26;3.58;;;0.40;;
40453;SDS011;26160;51.858;4.398;2022-07-06T05:38:52;2.45;;;0.30;;
40453;SDS011;26160;51.858;4.398;2022-07-06T05:41:18;0.85;;;0.40;;
40453;SDS011;26160;51.858;4.398;2022-07-06T05:43:44;1.20;;;0.55;;
40453;SDS011;26160;51.858;4.398;2022-07-06T05:46:10;1.40;;;0.40;;
40453;SDS011;26160;51.858;4.398;2022-07-06T05:48:36;2.35;;;0.50;;
40453;SDS011;26160;51.858;4.398;2022-07-06T05:51:21;1.10;;;0.40;;
40453;SDS011;26160;51.858;4.398;2022-07-06T05:53:47;2.65;;;0.47;;
40453;SDS011;26160;51.858;4.398;2022-07-06T05:56:13;1.55;;;0.52;;
40453;SDS011;26160;51.858;4.398;2022-07-06T05:58:39;2.08;;;0.40;;
40453;SDS011;26160;51.858;4.398;2022-07-06T06:01:05;3.05;;;0.30;;
40453;SDS011;26160;51.858;4.398;2022-07-06T06:03:33;5.28;;;0.50;;
40453;SDS011;26160;51.858;4.398;2022-07-06T06:05:59;0.52;;;0.20;;
40453;SDS011;26160;51.858;4.398;2022-07-06T06:08:25;6.82;;;0.45;;
40453;SDS011;26160;51.858;4.398;2022-07-06T06:10:52;2.60;;;0.30;;
40453;SDS011;26160;51.858;4.398;2022-07-06T06:13:18;1.30;;;0.40;;
40453;SDS011;26160;51.858;4.398;2022-07-06T06:15:44;0.73;;;0.40;;
40453;SDS011;26160;51.858;4.398;2022-07-06T06:18:10;1.77;;;0.30;;
40453;SDS011;26160;51.858;4.398;2022-07-06T06:20:37;1.02;;;0.30;;
40453;SDS011;26160;51.858;4.398;2022-07-06T06:23:03;1.77;;;0.40;;
40453;SDS011;26160;51.858;4.398;2022-07-06T06:25:32;0.63;;;0.20;;
40453;SDS011;26160;51.858;4.398;2022-07-06T06:28:00;0.82;;;0.30;;
40453;SDS011;26160;51.858;4.398;2022-07-06T06:30:28;2.08;;;0.30;;
40453;SDS011;26160;51.858;4.398;2022-07-06T06:33:07;1.50;;;0.45;;
40453;SDS011;26160;51.858;4.398;2022-07-06T06:35:35;0.45;;;0.30;;
40453;SDS011;26160;51.858;4.398;2022-07-06T06:38:04;2.65;;;0.40;;
40453;SDS011;26160;51.858;4.398;2022-07-06T06:40:30;1.10;;;0.20;;
40453;SDS011;26160;51.858;4.398;2022-07-06T06:42:56;2.38;;;0.30;;
40453;SDS011;26160;51.858;4.398;2022-07-06T06:45:22;0.95;;;0.20;;
40453;SDS011;26160;51.858;4.398;2022-07-06T06:47:48;0.52;;;0.20;;
40453;SDS011;26160;51.858;4.398;2022-07-06T06:50:14;6.78;;;0.60;;
40453;SDS011;26160;51.858;4.398;2022-07-06T06:52:41;2.47;;;0.35;;
40453;SDS011;26160;51.858;4.398;2022-07-06T06:55:07;0.82;;;0.20;;
40453;SDS011;26160;51.858;4.398;2022-07-06T06:57:33;2.28;;;0.75;;
40453;SDS011;26160;51.858;4.398;2022-07-06T07:00:00;1.23;;;0.25;;
40453;SDS011;26160;51.858;4.398;2022-07-06T07:02:26;2.20;;;0.30;;
40453;SDS011;26160;51.858;4.398;2022-07-06T07:04:52;1.00;;;0.10;;
40453;SDS011;26160;51.858;4.398;2022-07-06T07:07:18;1.30;;;0.30;;
40453;SDS011;26160;51.858;4.398;2022-07-06T07:09:45;1.45;;;0.40;;
40453;SDS011;26160;51.858;4.398;2022-07-06T07:12:11;0.82;;;0.30;;
40453;SDS011;26160;51.858;4.398;2022-07-06T07:14:37;2.00;;;0.45;;
40453;SDS011;26160;51.858;4.398;2022-07-06T07:17:03;0.63;;;0.20;;
40453;SDS011;26160;51.858;4.398;2022-07-06T07:19:30;1.67;;;0.30;;
40453;SDS011;26160;51.858;4.398;2022-07-06T07:21:56;1.10;;;0.30;;
40453;SDS011;26160;51.858;4.398;2022-07-06T07:24:22;2.45;;;0.25;;
40453;SDS011;26160;51.858;4.398;2022-07-06T07:26:48;0.73;;;0.25;;
40453;SDS011;26160;51.858;4.398;2022-07-06T07:29:14;1.00;;;0.28;;
40453;SDS011;26160;51.858;4.398;2022-07-06T07:31:40;1.02;;;0.30;;
40453;SDS011;26160;51.858;4.398;2022-07-06T07:34:06;0.93;;;0.20;;
40453;SDS011;26160;51.858;4.398;2022-07-06T07:36:33;0.50;;;0.20;;
40453;SDS011;26160;51.858;4.398;2022-07-06T07:38:59;0.57;;;0.20;;
40453;SDS011;26160;51.858;4.398;2022-07-06T07:41:25;3.92;;;0.63;;
40453;SDS011;26160;51.858;4.398;2022-07-06T07:43:51;0.88;;;0.20;;
40453;SDS011;26160;51.858;4.398;2022-07-06T07:46:17;2.40;;;0.38;;
40453;SDS011;26160;51.858;4.398;2022-07-06T07:48:43;0.13;;;0.10;;
40453;SDS011;26160;51.858;4.398;2022-07-06T07:51:09;0.77;;;0.15;;
40453;SDS011;26160;51.858;4.398;2022-07-06T07:53:35;0.47;;;0.10;;
40453;SDS011;26160;51.858;4.398;2022-07-06T07:56:01;0.10;;;0.10;;
40453;SDS011;26160;51.858;4.398;2022-07-06T07:58:28;2.55;;;0.30;;
40453;SDS011;26160;51.858;4.398;2022-07-06T08:00:55;1.90;;;0.25;;
40453;SDS011;26160;51.858;4.398;2022-07-06T08:03:21;2.72;;;0.43;;
40453;SDS011;26160;51.858;4.398;2022-07-06T08:05:47;0.32;;;0.20;;
40453;SDS011;26160;51.858;4.398;2022-07-06T08:08:14;1.42;;;0.20;;
40453;SDS011;26160;51.858;4.398;2022-07-06T08:10:40;0.73;;;0.20;;
40453;SDS011;26160;51.858;4.398;2022-07-06T08:13:06;2.65;;;0.30;;
40453;SDS011;26160;51.858;4.398;2022-07-06T08:15:33;0.32;;;0.10;;
40453;SDS011;26160;51.858;4.398;2022-07-06T08:18:00;2.08;;;0.30;;
40453;SDS011;26160;51.858;4.398;2022-07-06T08:20:26;3.40;;;0.30;;
40453;SDS011;26160;51.858;4.398;2022-07-06T08:22:52;0.57;;;0.20;;
40453;SDS011;26160;51.858;4.398;2022-07-06T08:25:18;0.70;;;0.20;;
40453;SDS011;26160;51.858;4.398;2022-07-06T08:27:44;1.52;;;0.22;;
40453;SDS011;26160;51.858;4.398;2022-07-06T08:30:11;1.67;;;0.38;;
40453;SDS011;26160;51.858;4.398;2022-07-06T08:32:38;1.20;;;0.30;;
40453;SDS011;26160;51.858;4.398;2022-07-06T08:35:05;2.42;;;0.88;;
40453;SDS011;26160;51.858;4.398;2022-07-06T08:37:32;1.90;;;0.30;;
40453;SDS011;26160;51.858;4.398;2022-07-06T08:39:58;3.17;;;0.52;;
40453;SDS011;26160;51.858;4.398;2022-07-06T08:42:25;4.57;;;0.47;;
40453;SDS011;26160;51.858;4.398;2022-07-06T08:45:00;7.30;;;0.40;;
40453;SDS011;26160;51.858;4.398;2022-07-06T08:47:28;3.58;;;0.60;;
40453;SDS011;26160;51.858;4.398;2022-07-06T08:49:56;1.00;;;0.30;;
40453;SDS011;26160;51.858;4.398;2022-07-06T08:52:22;2.15;;;0.47;;
40453;SDS011;26160;51.858;4.398;2022-07-06T08:54:49;2.58;;;0.40;;
40453;SDS011;26160;51.858;4.398;2022-07-06T08:57:15;2.00;;;0.40;;
40453;SDS011;26160;51.858;4.398;2022-07-06T08:59:42;4.57;;;0.40;;
40453;SDS011;26160;51.858;4.398;2022-07-06T09:02:10;1.08;;;0.43;;
40453;SDS011;26160;51.858;4.398;2022-07-06T09:04:36;1.77;;;0.40;;
40453;SDS011;26160;51.858;4.398;2022-07-06T09:07:03;0.32;;;0.30;;
40453;SDS011;26160;51.858;4.398;2022-07-06T09:09:30;1.50;;;0.35;;
40453;SDS011;26160;51.858;4.398;2022-07-06T09:11:57;1.60;;;0.32;;
40453;SDS011;26160;51.858;4.398;2022-07-06T09:14:23;2.08;;;0.43;;
40453;SDS011;26160;51.858;4.398;2022-07-06T09:17:00;1.77;;;0.45;;
40453;SDS011;26160;51.858;4.398;2022-07-06T09:19:32;0.47;;;0.30;;
40453;SDS011;26160;51.858;4.398;2022-07-06T09:22:00;1.35;;;0.30;;
40453;SDS011;26160;51.858;4.398;2022-07-06T09:24:27;2.10;;;0.40;;
40453;SDS011;26160;51.858;4.398;2022-07-06T09:26:57;0.55;;;0.20;;
40453;SDS011;26160;51.858;4.398;2022-07-06T09:29:27;1.38;;;0.50;;
40453;SDS011;26160;51.858;4.398;2022-07-06T09:31:55;0.65;;;0.30;;
40453;SDS011;26160;51.858;4.398;2022-07-06T09:34:24;2.08;;;0.40;;
40453;SDS011;26160;51.858;4.398;2022-07-06T09:37:05;1.40;;;0.30;;
40453;SDS011;26160;51.858;4.398;2022-07-06T09:39:32;0.88;;;0.32;;
40453;SDS011;26160;51.858;4.398;2022-07-06T09:41:58;3.75;;;0.40;;
40453;SDS011;26160;51.858;4.398;2022-07-06T09:46:55;1.65;;;0.43;;
40453;SDS011;26160;51.858;4.398;2022-07-06T09:49:22;0.95;;;0.30;;
40453;SDS011;26160;51.858;4.398;2022-07-06T09:51:51;3.22;;;0.52;;
40453;SDS011;26160;51.858;4.398;2022-07-06T09:54:18;2.25;;;0.60;;
40453;SDS011;26160;51.858;4.398;2022-07-06T09:56:46;0.85;;;0.30;;
40453;SDS011;26160;51.858;4.398;2022-07-06T09:59:16;2.10;;;0.50;;
40453;SDS011;26160;51.858;4.398;2022-07-06T10:01:44;2.50;;;0.32;;
40453;SDS011;26160;51.858;4.398;2022-07-06T10:04:13;1.10;;;0.30;;
40453;SDS011;26160;51.858;4.398;2022-07-06T10:06:41;0.43;;;0.20;;
40453;SDS011;26160;51.858;4.398;2022-07-06T10:09:08;3.70;;;0.40;;
40453;SDS011;26160;51.858;4.398;2022-07-06T10:11:43;2.70;;;0.55;;
40453;SDS011;26160;51.858;4.398;2022-07-06T10:14:21;2.83;;;0.60;;
40453;SDS011;26160;51.858;4.398;2022-07-06T10:16:49;2.95;;;0.60;;
40453;SDS011;26160;51.858;4.398;2022-07-06T10:19:16;2.30;;;0.55;;
40453;SDS011;26160;51.858;4.398;2022-07-06T10:21:44;0.82;;;0.40;;
40453;SDS011;26160;51.858;4.398;2022-07-06T10:24:11;1.65;;;0.43;;
40453;SDS011;26160;51.858;4.398;2022-07-06T10:26:38;1.60;;;0.28;;
40453;SDS011;26160;51.858;4.398;2022-07-06T10:29:06;2.47;;;0.50;;
40453;SDS011;26160;51.858;4.398;2022-07-06T10:31:34;3.20;;;0.70;;
40453;SDS011;26160;51.858;4.398;2022-07-06T10:34:04;0.82;;;0.40;;
40453;SDS011;26160;51.858;4.398;2022-07-06T10:36:38;5.73;;;0.70;;
40453;SDS011;26160;51.858;4.398;2022-07-06T10:39:05;2.45;;;0.65;;
40453;SDS011;26160;51.858;4.398;2022-07-06T10:41:50;1.23;;;0.63;;
40453;SDS011;26160;51.858;4.398;2022-07-06T10:44:18;1.90;;;0.50;;
40453;SDS011;26160;51.858;4.398;2022-07-06T10:46:55;2.15;;;0.63;;
40453;SDS011;26160;51.858;4.398;2022-07-06T10:49:24;2.97;;;0.50;;
40453;SDS011;26160;51.858;4.398;2022-07-06T10:51:51;1.90;;;0.38;;
40453;SDS011;26160;51.858;4.398;2022-07-06T10:54:18;1.85;;;0.55;;
40453;SDS011;26160;51.858;4.398;2022-07-06T10:56:46;1.00;;;0.40;;
40453;SDS011;26160;51.858;4.398;2022-07-06T11:04:43;2.17;;;0.57;;
40453;SDS011;26160;51.858;4.398;2022-07-06T11:07:11;2.05;;;0.60;;
40453;SDS011;26160;51.858;4.398;2022-07-06T11:09:39;1.65;;;0.60;;
40453;SDS011;26160;51.858;4.398;2022-07-06T11:12:16;2.20;;;0.50;;
40453;SDS011;26160;51.858;4.398;2022-07-06T11:14:49;1.52;;;0.40;;
40453;SDS011;26160;51.858;4.398;2022-07-06T11:17:17;1.02;;;0.40;;
40453;SDS011;26160;51.858;4.398;2022-07-06T11:19:50;0.85;;;0.30;;
40453;SDS011;26160;51.858;4.398;2022-07-06T11:22:20;2.55;;;0.50;;
40453;SDS011;26160;51.858;4.398;2022-07-06T11:24:46;1.20;;;0.50;;
40453;SDS011;26160;51.858;4.398;2022-07-06T11:27:13;1.75;;;0.52;;
40453;SDS011;26160;51.858;4.398;2022-07-06T11:29:39;2.70;;;0.70;;
40453;SDS011;26160;51.858;4.398;2022-07-06T11:32:07;2.50;;;0.60;;
40453;SDS011;26160;51.858;4.398;2022-07-06T11:34:38;2.90;;;0.50;;
40453;SDS011;26160;51.858;4.398;2022-07-06T11:37:15;1.33;;;0.32;;
40453;SDS011;26160;51.858;4.398;2022-07-06T11:39:44;4.78;;;0.60;;
40453;SDS011;26160;51.858;4.398;2022-07-06T11:42:12;2.72;;;0.60;;
40453;SDS011;26160;51.858;4.398;2022-07-06T11:44:39;0.73;;;0.20;;
40453;SDS011;26160;51.858;4.398;2022-07-06T11:47:07;1.67;;;0.52;;
40453;SDS011;26160;51.858;4.398;2022-07-06T11:49:35;1.90;;;0.57;;
40453;SDS011;26160;51.858;4.398;2022-07-06T11:52:09;1.35;;;0.32;;
40453;SDS011;26160;51.858;4.398;2022-07-06T11:54:36;2.38;;;0.50;;
40453;SDS011;26160;51.858;4.398;2022-07-06T11:57:03;2.83;;;0.60;;
40453;SDS011;26160;51.858;4.398;2022-07-06T12:02:00;3.70;;;0.60;;
40453;SDS011;26160;51.858;4.398;2022-07-06T12:04:32;1.40;;;0.38;;
40453;SDS011;26160;51.858;4.398;2022-07-06T12:07:03;3.42;;;0.65;;
40453;SDS011;26160;51.858;4.398;2022-07-06T12:09:33;1.98;;;0.60;;
40453;SDS011;26160;51.858;4.398;2022-07-06T12:12:01;4.68;;;0.75;;
40453;SDS011;26160;51.858;4.398;2022-07-06T12:14:28;2.03;;;0.45;;
40453;SDS011;26160;51.858;4.398;2022-07-06T12:16:56;2.53;;;0.63;;
40453;SDS011;26160;51.858;4.398;2022-07-06T12:19:27;2.22;;;0.60;;
40453;SDS011;26160;51.858;4.398;2022-07-06T12:21:55;3.15;;;0.95;;
40453;SDS011;26160;51.858;4.398;2022-07-06T12:24:22;2.15;;;0.60;;
40453;SDS011;26160;51.858;4.398;2022-07-06T12:26:52;2.33;;;0.63;;
40453;SDS011;26160;51.858;4.398;2022-07-06T12:29:20;3.72;;;1.10;;
40453;SDS011;26160;51.858;4.398;2022-07-06T12:34:28;1.33;;;0.65;;
40453;SDS011;26160;51.858;4.398;2022-07-06T12:37:05;2.20;;;0.60;;
40453;SDS011;26160;51.858;4.398;2022-07-06T12:39:40;1.45;;;0.50;;
40453;SDS011;26160;51.858;4.398;2022-07-06T12:42:08;2.10;;;0.80;;
40453;SDS011;26160;51.858;4.398;2022-07-06T12:44:41;2.08;;;0.70;;
40453;SDS011;26160;51.858;4.398;2022-07-06T12:47:09;2.85;;;1.10;;
40453;SDS011;26160;51.858;4.398;2022-07-06T12:49:36;2.80;;;0.70;;
40453;SDS011;26160;51.858;4.398;2022-07-06T12:59:41;2.80;;;0.93;;
40453;SDS011;26160;51.858;4.398;2022-07-06T13:02:08;2.30;;;0.75;;
40453;SDS011;26160;51.858;4.398;2022-07-06T13:04:42;2.28;;;0.73;;
40453;SDS011;26160;51.858;4.398;2022-07-06T13:07:14;3.80;;;1.45;;
40453;SDS011;26160;51.858;4.398;2022-07-06T13:09:47;6.10;;;1.50;;
40453;SDS011;26160;51.858;4.398;2022-07-06T13:12:13;1.95;;;0.80;;
40453;SDS011;26160;51.858;4.398;2022-07-06T13:14:39;4.75;;;1.20;;
40453;SDS011;26160;51.858;4.398;2022-07-06T13:17:05;5.63;;;1.33;;
40453;SDS011;26160;51.858;4.398;2022-07-06T13:19:32;4.60;;;1.17;;
40453;SDS011;26160;51.858;4.398;2022-07-06T13:21:58;4.10;;;1.20;;
40453;SDS011;26160;51.858;4.398;2022-07-06T13:24:24;7.30;;;1.35;;
40453;SDS011;26160;51.858;4.398;2022-07-06T13:26:54;6.70;;;1.23;;
40453;SDS011;26160;51.858;4.398;2022-07-06T13:29:21;6.05;;;1.27;;
40453;SDS011;26160;51.858;4.398;2022-07-06T13:31:47;3.78;;;1.20;;
40453;SDS011;26160;51.858;4.398;2022-07-06T13:34:13;3.67;;;1.00;;
40453;SDS011;26160;51.858;4.398;2022-07-06T13:36:39;4.57;;;1.65;;
40453;SDS011;26160;51.858;4.398;2022-07-06T13:39:05;5.88;;;1.30;;
40453;SDS011;26160;51.858;4.398;2022-07-06T13:41:32;4.07;;;0.90;;
40453;SDS011;26160;51.858;4.398;2022-07-06T13:43:59;3.47;;;1.23;;
40453;SDS011;26160;51.858;4.398;2022-07-06T13:46:29;4.57;;;1.00;;
40453;SDS011;26160;51.858;4.398;2022-07-06T13:48:56;2.90;;;1.15;;
40453;SDS011;26160;51.858;4.398;2022-07-06T13:51:23;3.30;;;0.80;;
40453;SDS011;26160;51.858;4.398;2022-07-06T13:53:50;5.63;;;1.50;;
40453;SDS011;26160;51.858;4.398;2022-07-06T13:56:16;2.15;;;0.70;;
40453;SDS011;26160;51.858;4.398;2022-07-06T13:58:43;4.18;;;1.33;;
40453;SDS011;26160;51.858;4.398;2022-07-06T14:01:09;3.63;;;1.00;;
40453;SDS011;26160;51.858;4.398;2022-07-06T14:03:36;3.80;;;1.15;;
40453;SDS011;26160;51.858;4.398;2022-07-06T14:06:03;4.45;;;1.30;;
40453;SDS011;26160;51.858;4.398;2022-07-06T14:08:33;5.25;;;1.35;;
40453;SDS011;26160;51.858;4.398;2022-07-06T14:11:01;6.55;;;1.70;;
40453;SDS011;26160;51.858;4.398;2022-07-06T14:13:28;6.38;;;1.80;;
40453;SDS011;26160;51.858;4.398;2022-07-06T14:15:56;9.15;;;1.80;;
40453;SDS011;26160;51.858;4.398;2022-07-06T14:18:22;6.13;;;1.65;;
40453;SDS011;26160;51.858;4.398;2022-07-06T14:20:49;6.22;;;1.55;;
40453;SDS011;26160;51.858;4.398;2022-07-06T14:23:16;5.53;;;1.67;;
40453;SDS011;26160;51.858;4.398;2022-07-06T14:25:43;3.17;;;1.38;;
40453;SDS011;26160;51.858;4.398;2022-07-06T14:28:09;5.32;;;1.83;;
40453;SDS011;26160;51.858;4.398;2022-07-06T14:30:39;7.45;;;1.85;;
40453;SDS011;26160;51.858;4.398;2022-07-06T14:33:07;3.35;;;2.17;;
40453;SDS011;26160;51.858;4.398;2022-07-06T14:35:43;5.93;;;2.22;;
40453;SDS011;26160;51.858;4.398;2022-07-06T14:38:13;8.60;;;2.22;;
40453;SDS011;26160;51.858;4.398;2022-07-06T14:40:44;5.95;;;2.25;;
40453;SDS011;26160;51.858;4.398;2022-07-06T14:43:10;6.13;;;1.85;;
40453;SDS011;26160;51.858;4.398;2022-07-06T14:45:37;3.13;;;1.50;;
40453;SDS011;26160;51.858;4.398;2022-07-06T14:48:04;4.60;;;1.83;;
40453;SDS011;26160;51.858;4.398;2022-07-06T14:50:31;3.42;;;1.70;;
40453;SDS011;26160;51.858;4.398;2022-07-06T14:52:57;5.38;;;1.98;;
40453;SDS011;26160;51.858;4.398;2022-07-06T14:55:23;7.15;;;2.22;;
40453;SDS011;26160;51.858;4.398;2022-07-06T14:57:49;3.78;;;1.75;;
40453;SDS011;26160;51.858;4.398;2022-07-06T15:00:16;4.80;;;2.28;;
40453;SDS011;26160;51.858;4.398;2022-07-06T15:02:42;5.15;;;2.22;;
40453;SDS011;26160;51.858;4.398;2022-07-06T15:05:09;5.00;;;2.00;;
40453;SDS011;26160;51.858;4.398;2022-07-06T15:07:36;5.50;;;1.90;;
40453;SDS011;26160;51.858;4.398;2022-07-06T15:10:03;4.00;;;1.70;;